Time;durP1;ratioP1;P1;durP2;ratioP2;P2;SDS_P1;SDS_P2;PMS_P1;PMS_P2;Temp;Humidity;BMP_temperature;BMP_pressure;BME280_temperature;BME280_humidity;BME280_pressure;Samples;Min_cycle;Max_cycle;Signal;HPM_P1;HPM_P2
2020/12/21 00:00:56;;;;;;;19.00;9.05;;;7.60;94.00;;;;;;5016297;28;20013;-71
2020/12/21 00:03:21;;;;;;;26.67;12.88;;;7.60;94.10;;;;;;5034485;28;20029;-70
2020/12/21 00:05:47;;;;;;;19.60;9.45;;;7.60;94.10;;;;;;5034800;28;20029;-77
2020/12/21 00:08:12;;;;;;;16.70;5.60;;;7.60;94.20;;;;;;5033743;28;20029;-70
2020/12/21 00:10:38;;;;;;;13.85;7.07;;;7.50;94.20;;;;;;5035057;28;20485;-78
2020/12/21 00:13:03;;;;;;;11.65;6.20;;;7.50;94.20;;;;;;5034037;28;20108;-84
2020/12/21 00:15:29;;;;;;;11.73;5.60;;;7.50;94.30;;;;;;5033765;28;20070;-78
2020/12/21 00:17:54;;;;;;;17.10;5.60;;;7.50;94.30;;;;;;5033387;28;20117;-70
2020/12/21 00:20:20;;;;;;;18.13;6.32;;;7.50;94.30;;;;;;4997434;28;20053;-71
2020/12/21 00:22:45;;;;;;;18.17;7.05;;;7.40;94.30;;;;;;5019573;28;20026;-73
2020/12/21 00:25:11;;;;;;;13.02;5.68;;;7.40;94.40;;;;;;5034117;28;20030;-72
2020/12/21 00:27:37;;;;;;;14.77;5.72;;;7.40;94.40;;;;;;5033889;28;20022;-76
2020/12/21 00:30:04;;;;;;;13.20;5.13;;;7.30;94.40;;;;;;5033915;28;20029;-78
2020/12/21 00:32:31;;;;;;;15.63;5.88;;;7.30;94.50;;;;;;5033738;28;20148;-78
2020/12/21 00:34:56;;;;;;;16.58;6.40;;;7.30;94.50;;;;;;5027640;28;20104;-79
2020/12/21 00:37:22;;;;;;;15.75;5.95;;;7.30;94.50;;;;;;5013759;28;20121;-78
2020/12/21 00:39:48;;;;;;;16.00;5.30;;;7.30;94.50;;;;;;4996113;28;20076;-74
2020/12/21 00:42:14;;;;;;;16.52;5.15;;;7.30;94.50;;;;;;5013181;28;20042;-70
2020/12/21 00:44:39;;;;;;;14.88;5.25;;;7.20;94.60;;;;;;5013926;28;20022;-79
2020/12/21 00:47:05;;;;;;;12.48;6.35;;;7.20;94.60;;;;;;5013682;28;20386;-75
2020/12/21 00:49:30;;;;;;;17.45;6.82;;;7.20;94.70;;;;;;5013303;28;20026;-71
2020/12/21 00:51:57;;;;;;;15.73;5.72;;;7.20;94.70;;;;;;5013267;28;20104;-74
2020/12/21 00:54:22;;;;;;;13.60;6.15;;;7.10;94.70;;;;;;5013584;28;20022;-70
2020/12/21 00:56:48;;;;;;;14.70;6.07;;;7.10;94.70;;;;;;5012863;28;20037;-84
2020/12/21 00:59:13;;;;;;;15.43;5.45;;;7.10;94.80;;;;;;5013472;28;20069;-72
2020/12/21 01:01:39;;;;;;;18.98;5.85;;;7.10;94.80;;;;;;5013598;28;20022;-85
2020/12/21 01:04:05;;;;;;;12.52;5.53;;;7.10;94.80;;;;;;5012589;28;20097;-73
2020/12/21 01:06:33;;;;;;;11.93;5.05;;;7.00;94.80;;;;;;5013623;28;20497;-75
2020/12/21 01:08:59;;;;;;;13.55;5.10;;;7.10;94.80;;;;;;5013209;28;20104;-77
2020/12/21 01:11:28;;;;;;;19.33;6.25;;;7.00;94.80;;;;;;5017842;28;20022;-82
2020/12/21 01:13:54;;;;;;;10.88;4.35;;;7.00;94.80;;;;;;5015256;28;20021;-76
2020/12/21 01:16:20;;;;;;;13.40;4.90;;;7.00;94.90;;;;;;5015473;28;20040;-77
2020/12/21 01:18:46;;;;;;;16.02;5.30;;;7.00;94.90;;;;;;5032486;28;20421;-75
2020/12/21 01:21:22;;;;;;;13.20;5.10;;;7.00;94.90;;;;;;5032577;28;20029;-72
2020/12/21 01:23:48;;;;;;;19.38;5.40;;;6.90;94.90;;;;;;5032439;28;20014;-79
2020/12/21 01:26:13;;;;;;;12.48;4.85;;;6.90;94.90;;;;;;5032892;28;20032;-71
2020/12/21 01:28:39;;;;;;;12.80;5.32;;;6.90;94.90;;;;;;5033046;28;20032;-76
2020/12/21 01:31:04;;;;;;;19.27;5.63;;;6.90;94.90;;;;;;5032298;28;20463;-80
2020/12/21 01:33:30;;;;;;;17.02;5.43;;;6.90;94.90;;;;;;5033420;28;20088;-74
2020/12/21 01:35:55;;;;;;;11.80;4.78;;;6.80;94.80;;;;;;5032417;28;20022;-74
2020/12/21 01:38:21;;;;;;;14.52;4.57;;;6.80;94.80;;;;;;5038562;28;20397;-72
2020/12/21 01:40:46;;;;;;;19.75;5.43;;;6.80;94.80;;;;;;5045322;28;20032;-73
2020/12/21 01:43:11;;;;;;;16.30;4.90;;;6.70;94.90;;;;;;5034579;28;20056;-84
2020/12/21 01:45:37;;;;;;;16.73;5.80;;;6.70;95.00;;;;;;5014453;28;20045;-72
2020/12/21 01:48:03;;;;;;;9.93;5.15;;;6.70;95.00;;;;;;5032594;28;20483;-72
2020/12/21 01:50:28;;;;;;;19.25;5.25;;;6.70;95.00;;;;;;5032942;28;20026;-73
2020/12/21 01:52:54;;;;;;;17.33;4.82;;;6.60;95.00;;;;;;5035274;28;20025;-73
2020/12/21 01:55:21;;;;;;;12.88;5.28;;;6.60;95.10;;;;;;5036747;28;20018;-84
2020/12/21 01:57:47;;;;;;;13.68;4.88;;;6.60;95.10;;;;;;5036653;28;20040;-70
2020/12/21 02:00:12;;;;;;;17.70;5.22;;;6.60;95.10;;;;;;5017868;28;20026;-70
2020/12/21 02:02:38;;;;;;;11.50;4.72;;;6.60;95.00;;;;;;5036580;28;20057;-70
2020/12/21 02:05:03;;;;;;;15.32;4.80;;;6.60;95.10;;;;;;5018595;28;20037;-70
2020/12/21 02:07:29;;;;;;;11.80;4.30;;;6.60;95.40;;;;;;5036019;28;20029;-70
2020/12/21 02:09:55;;;;;;;16.50;5.13;;;6.60;95.10;;;;;;5036347;28;20025;-77
2020/12/21 02:12:21;;;;;;;9.70;4.50;;;6.60;95.10;;;;;;5018729;28;20116;-73
2020/12/21 02:14:47;;;;;;;9.90;4.40;;;6.50;95.00;;;;;;5035958;28;20056;-74
2020/12/21 02:17:12;;;;;;;12.10;4.63;;;6.50;95.10;;;;;;5036599;28;20038;-84
2020/12/21 02:19:38;;;;;;;14.27;4.38;;;6.50;95.10;;;;;;5019110;28;20048;-74
2020/12/21 02:22:03;;;;;;;18.58;4.68;;;6.50;95.20;;;;;;5035561;28;20033;-80
2020/12/21 02:24:29;;;;;;;16.40;5.22;;;6.50;95.20;;;;;;5036376;28;20018;-74
2020/12/21 02:26:54;;;;;;;15.60;4.95;;;6.50;95.20;;;;;;5035882;28;20060;-75
2020/12/21 02:29:20;;;;;;;13.05;5.43;;;6.50;95.30;;;;;;5036819;28;20030;-84
2020/12/21 02:31:46;;;;;;;14.98;5.15;;;6.60;95.40;;;;;;5037037;28;20033;-77
2020/12/21 02:34:17;;;;;;;11.98;4.75;;;6.60;95.40;;;;;;5034978;28;20032;-71
2020/12/21 02:36:43;;;;;;;13.55;4.60;;;6.60;95.40;;;;;;5036297;28;20117;-80
2020/12/21 02:39:09;;;;;;;13.13;4.20;;;6.60;95.40;;;;;;5017995;28;20386;-82
2020/12/21 02:41:34;;;;;;;14.10;4.60;;;6.60;95.40;;;;;;5035411;28;20032;-73
2020/12/21 02:44:00;;;;;;;13.02;4.10;;;6.60;95.40;;;;;;5035262;28;20046;-71
2020/12/21 02:46:25;;;;;;;15.90;4.50;;;6.60;95.40;;;;;;5036104;28;20032;-83
2020/12/21 02:48:51;;;;;;;13.52;4.35;;;6.60;95.40;;;;;;5035026;28;20032;-73
2020/12/21 02:51:16;;;;;;;13.98;4.40;;;6.60;95.50;;;;;;5035766;28;20026;-84
2020/12/21 02:53:42;;;;;;;15.32;4.53;;;6.60;95.50;;;;;;5035411;28;20066;-82
2020/12/21 02:56:08;;;;;;;11.75;4.05;;;6.60;95.50;;;;;;5034806;28;20033;-72
2020/12/21 02:58:34;;;;;;;21.55;5.53;;;6.60;95.50;;;;;;5035882;28;20018;-77
2020/12/21 03:00:59;;;;;;;12.57;4.15;;;6.60;95.40;;;;;;5035331;28;20347;-75
2020/12/21 03:03:25;;;;;;;16.13;4.50;;;6.60;95.40;;;;;;5034511;28;20151;-75
2020/12/21 03:05:50;;;;;;;13.63;5.05;;;6.60;95.30;;;;;;5035544;28;20036;-76
2020/12/21 03:08:16;;;;;;;11.25;3.90;;;6.60;95.30;;;;;;5035380;28;20029;-70
2020/12/21 03:10:42;;;;;;;16.48;4.63;;;6.50;95.30;;;;;;5034600;28;20025;-69
2020/12/21 03:13:07;;;;;;;14.18;4.50;;;6.60;95.40;;;;;;5034806;28;20024;-71
2020/12/21 03:15:33;;;;;;;14.77;4.25;;;6.50;95.30;;;;;;5035069;28;20101;-70
2020/12/21 03:17:59;;;;;;;14.68;4.55;;;6.50;95.30;;;;;;5034048;28;20088;-69
2020/12/21 03:20:24;;;;;;;17.80;4.25;;;6.50;95.30;;;;;;5035270;28;20373;-70
2020/12/21 03:22:50;;;;;;;10.95;3.97;;;6.50;95.30;;;;;;5034896;28;20439;-72
2020/12/21 03:25:16;;;;;;;13.80;4.28;;;6.50;95.40;;;;;;5016118;28;20018;-70
2020/12/21 03:27:42;;;;;;;8.65;3.53;;;6.50;95.40;;;;;;5035007;28;20064;-84
2020/12/21 03:30:09;;;;;;;9.57;3.38;;;6.50;95.40;;;;;;5034595;28;20445;-70
2020/12/21 03:32:35;;;;;;;18.70;4.63;;;6.50;95.40;;;;;;5034625;28;20018;-69
2020/12/21 03:35:03;;;;;;;13.95;4.00;;;6.50;95.50;;;;;;5016826;28;20032;-70
2020/12/21 03:37:32;;;;;;;16.10;4.45;;;6.50;95.40;;;;;;5033875;28;20033;-71
2020/12/21 03:40:01;;;;;;;17.63;4.53;;;6.40;95.40;;;;;;5034178;28;20013;-70
2020/12/21 03:42:27;;;;;;;14.35;4.45;;;6.40;95.40;;;;;;5034361;28;20103;-70
2020/12/21 03:44:52;;;;;;;16.13;3.88;;;6.40;95.40;;;;;;5033359;28;20029;-72
2020/12/21 03:47:18;;;;;;;9.30;4.45;;;6.40;95.40;;;;;;5016811;28;20021;-72
2020/12/21 03:49:43;;;;;;;12.43;4.50;;;6.40;95.50;;;;;;5016873;28;20025;-71
2020/12/21 03:52:09;;;;;;;12.20;4.57;;;6.40;95.50;;;;;;5015658;28;20028;-70
2020/12/21 03:54:34;;;;;;;12.48;5.38;;;6.40;95.40;;;;;;5034401;28;20033;-71
2020/12/21 03:57:00;;;;;;;14.85;4.15;;;6.40;95.40;;;;;;5033976;28;20037;-72
2020/12/21 03:59:25;;;;;;;19.02;4.90;;;6.40;95.50;;;;;;5033681;28;20027;-72
2020/12/21 04:01:51;;;;;;;14.50;3.97;;;6.40;95.60;;;;;;5034208;28;20022;-70
2020/12/21 04:04:16;;;;;;;21.70;4.53;;;6.40;95.50;;;;;;5034062;28;20053;-70
2020/12/21 04:06:42;;;;;;;9.45;4.28;;;6.40;95.50;;;;;;5033297;28;20034;-70
2020/12/21 04:09:07;;;;;;;15.40;4.70;;;6.40;95.50;;;;;;5016093;28;20032;-70
2020/12/21 04:11:33;;;;;;;12.95;4.05;;;6.50;95.60;;;;;;5034064;28;20084;-70
2020/12/21 04:13:58;;;;;;;13.13;4.18;;;6.50;95.60;;;;;;5032116;28;20076;-71
2020/12/21 04:16:24;;;;;;;14.88;4.57;;;6.60;95.60;;;;;;5033961;28;20113;-79
2020/12/21 04:18:50;;;;;;;15.60;3.60;;;6.70;95.60;;;;;;5034066;28;20064;-79
2020/12/21 04:21:15;;;;;;;16.40;3.92;;;6.70;95.50;;;;;;5033105;28;20109;-71
2020/12/21 04:23:41;;;;;;;16.10;4.10;;;6.70;95.40;;;;;;5033877;28;20057;-72
2020/12/21 04:26:07;;;;;;;12.88;4.07;;;6.70;95.40;;;;;;5033509;28;20017;-71
2020/12/21 04:28:33;;;;;;;11.55;3.60;;;6.70;95.60;;;;;;5033370;28;20022;-71
2020/12/21 04:31:06;;;;;;;9.40;3.72;;;6.60;95.30;;;;;;5033690;28;20041;-72
2020/12/21 04:33:33;;;;;;;11.65;4.03;;;6.60;95.30;;;;;;5032799;28;20025;-71
2020/12/21 04:35:59;;;;;;;9.68;4.20;;;6.60;95.30;;;;;;5033227;28;20032;-70
2020/12/21 04:38:24;;;;;;;8.88;3.75;;;6.60;95.30;;;;;;5033582;28;20033;-70
2020/12/21 04:40:51;;;;;;;13.05;4.60;;;6.60;95.30;;;;;;5032732;28;20493;-71
2020/12/21 04:43:17;;;;;;;12.70;4.28;;;6.60;95.30;;;;;;5032528;28;20059;-70
2020/12/21 04:45:43;;;;;;;13.55;3.95;;;6.60;95.20;;;;;;5032700;28;20445;-70
2020/12/21 04:48:15;;;;;;;11.05;3.63;;;6.60;95.20;;;;;;5031820;28;20467;-71
2020/12/21 04:50:41;;;;;;;10.98;3.40;;;6.60;95.20;;;;;;5032796;28;20024;-72
2020/12/21 04:53:08;;;;;;;16.02;4.32;;;6.60;95.10;;;;;;5032248;28;20029;-71
2020/12/21 04:55:34;;;;;;;12.48;3.75;;;6.50;95.10;;;;;;5014405;28;20381;-74
2020/12/21 04:58:01;;;;;;;15.00;4.20;;;6.50;95.10;;;;;;5033008;28;20030;-71
2020/12/21 05:00:28;;;;;;;11.18;3.80;;;6.40;95.20;;;;;;5032981;28;20044;-71
2020/12/21 05:02:55;;;;;;;13.10;4.13;;;6.40;95.20;;;;;;5031298;28;20025;-70
2020/12/21 05:05:35;;;;;;;9.82;3.67;;;6.40;95.20;;;;;;5032219;28;20493;-69
2020/12/21 05:08:21;;;;;;;11.98;3.60;;;6.40;95.20;;;;;;5032136;28;20478;-70
2020/12/21 05:11:05;;;;;;;13.63;3.83;;;6.30;95.20;;;;;;5031494;28;20021;-71
2020/12/21 05:13:32;;;;;;;15.35;3.88;;;6.30;95.30;;;;;;5032301;28;20083;-71
2020/12/21 05:15:59;;;;;;;7.65;3.20;;;6.30;95.40;;;;;;5031192;28;20026;-70
2020/12/21 05:18:34;;;;;;;11.93;3.08;;;6.30;95.40;;;;;;5032164;28;20036;-72
2020/12/21 05:21:08;;;;;;;12.55;3.45;;;6.30;95.40;;;;;;5031788;28;20022;-69
2020/12/21 05:23:34;;;;;;;11.55;3.25;;;6.30;95.50;;;;;;5031563;28;20474;-69
2020/12/21 05:26:10;;;;;;;9.55;3.53;;;6.30;95.50;;;;;;5031566;28;20044;-69
2020/12/21 05:28:37;;;;;;;11.90;3.63;;;6.30;95.60;;;;;;5032326;28;20017;-69
2020/12/21 05:31:05;;;;;;;15.30;3.78;;;6.30;95.60;;;;;;5030951;28;20026;-71
2020/12/21 05:33:32;;;;;;;6.90;3.70;;;6.40;95.60;;;;;;5014385;28;20552;-71
2020/12/21 05:36:09;;;;;;;15.20;3.83;;;6.40;95.70;;;;;;5031805;28;20029;-70
2020/12/21 05:38:35;;;;;;;7.07;3.22;;;6.50;95.60;;;;;;5031280;28;20037;-71
2020/12/21 05:41:16;;;;;;;12.85;3.38;;;6.50;95.60;;;;;;5031856;28;20018;-70
2020/12/21 05:43:43;;;;;;;10.07;3.50;;;6.50;95.50;;;;;;5013871;28;532100;-71
2020/12/21 05:46:12;;;;;;;9.70;3.72;;;6.50;95.50;;;;;;5032395;28;20029;-69
2020/12/21 05:48:57;;;;;;;14.60;4.28;;;6.50;95.40;;;;;;5032707;28;20017;-70
2020/12/21 05:51:37;;;;;;;13.95;3.85;;;6.50;95.40;;;;;;5031969;28;20121;-70
2020/12/21 05:54:07;;;;;;;14.10;3.53;;;6.50;95.40;;;;;;5014382;28;20022;-70
2020/12/21 05:56:35;;;;;;;12.88;3.90;;;6.50;95.40;;;;;;5014796;28;20029;-70
2020/12/21 05:59:01;;;;;;;11.50;3.58;;;6.40;95.40;;;;;;5031792;28;20029;-69
2020/12/21 06:01:27;;;;;;;9.43;3.30;;;6.40;95.40;;;;;;5032368;28;20049;-70
2020/12/21 06:04:03;;;;;;;10.25;3.45;;;6.40;95.40;;;;;;5032073;28;20026;-69
2020/12/21 06:06:30;;;;;;;14.75;3.80;;;6.40;95.30;;;;;;5013559;28;20022;-70
2020/12/21 06:08:58;;;;;;;9.18;3.53;;;6.30;95.30;;;;;;5018111;28;20022;-70
2020/12/21 06:11:25;;;;;;;16.05;3.90;;;6.40;95.30;;;;;;4995653;28;20118;-69
2020/12/21 06:13:53;;;;;;;12.55;3.78;;;6.40;95.30;;;;;;5008381;28;20033;-69
2020/12/21 06:16:19;;;;;;;9.90;3.65;;;6.30;95.20;;;;;;5035860;28;20115;-75
2020/12/21 06:18:56;;;;;;;11.45;4.72;;;6.40;95.20;;;;;;5052356;28;20028;-69
2020/12/21 06:21:29;;;;;;;11.32;3.42;;;6.40;95.20;;;;;;5032015;28;20017;-69
2020/12/21 06:23:55;;;;;;;10.93;3.40;;;6.40;95.20;;;;;;5031919;28;20108;-69
2020/12/21 06:26:32;;;;;;;12.05;4.68;;;6.40;95.10;;;;;;5031741;28;20589;-70
2020/12/21 06:28:59;;;;;;;9.02;3.70;;;6.40;95.10;;;;;;5037533;28;20020;-70
2020/12/21 06:31:46;;;;;;;11.27;3.33;;;6.40;95.00;;;;;;5018411;28;20033;-69
2020/12/21 06:34:16;;;;;;;12.27;3.88;;;6.40;95.30;;;;;;5011649;28;20125;-70
2020/12/21 06:36:43;;;;;;;10.93;4.22;;;6.40;94.90;;;;;;4994634;28;20496;-73
2020/12/21 06:39:20;;;;;;;12.57;3.88;;;6.40;94.90;;;;;;5035020;28;20370;-68
2020/12/21 06:41:46;;;;;;;15.38;4.05;;;6.40;94.80;;;;;;5016857;28;20032;-69
2020/12/21 06:44:11;;;;;;;13.10;4.47;;;6.40;94.80;;;;;;5035484;28;20041;-71
2020/12/21 06:46:37;;;;;;;10.38;3.92;;;6.40;94.70;;;;;;5035829;28;20029;-71
2020/12/21 06:49:05;;;;;;;9.77;3.95;;;6.30;94.70;;;;;;5016915;28;20065;-69
2020/12/21 06:51:31;;;;;;;13.35;4.15;;;6.30;94.60;;;;;;5025944;28;20105;-74
2020/12/21 06:53:58;;;;;;;15.02;3.75;;;6.30;94.60;;;;;;5033514;28;20092;-72
2020/12/21 06:56:26;;;;;;;11.32;4.15;;;6.20;94.50;;;;;;5015687;28;20477;-70
2020/12/21 06:58:53;;;;;;;12.30;4.75;;;6.20;94.50;;;;;;5026592;28;20065;-73
2020/12/21 07:01:20;;;;;;;14.25;4.38;;;6.20;94.50;;;;;;5014513;28;20017;-72
2020/12/21 07:03:46;;;;;;;8.57;3.72;;;6.10;94.40;;;;;;5021755;28;20033;-72
2020/12/21 07:06:13;;;;;;;7.07;3.40;;;6.10;94.40;;;;;;5034861;28;20029;-74
2020/12/21 07:08:39;;;;;;;14.68;4.30;;;6.10;94.30;;;;;;5034148;28;20091;-72
2020/12/21 07:11:04;;;;;;;17.00;4.00;;;6.10;94.30;;;;;;4997405;28;20513;-67
2020/12/21 07:13:34;;;;;;;14.93;4.18;;;6.10;94.30;;;;;;5014682;28;20079;-68
2020/12/21 07:16:02;;;;;;;10.88;4.60;;;6.10;94.40;;;;;;5014124;28;20022;-72
2020/12/21 07:18:28;;;;;;;9.00;3.45;;;6.20;94.40;;;;;;5034193;28;20036;-68
2020/12/21 07:20:54;;;;;;;10.52;4.13;;;6.20;94.40;;;;;;5033865;28;20513;-68
2020/12/21 07:23:20;;;;;;;12.05;4.65;;;6.30;94.40;;;;;;5033223;28;20091;-68
2020/12/21 07:25:52;;;;;;;11.77;4.20;;;6.40;94.40;;;;;;5016512;28;20497;-74
2020/12/21 07:28:24;;;;;;;11.32;4.15;;;6.50;94.30;;;;;;5014357;28;20033;-73
2020/12/21 07:30:50;;;;;;;15.52;4.45;;;6.60;94.30;;;;;;5022532;28;20029;-76
2020/12/21 07:33:17;;;;;;;14.70;4.60;;;6.70;94.30;;;;;;5033323;28;20029;-70
2020/12/21 07:35:43;;;;;;;11.18;4.00;;;6.70;94.20;;;;;;5016601;28;20441;-73
2020/12/21 07:38:10;;;;;;;9.73;4.88;;;6.80;94.20;;;;;;5033733;28;20033;-76
2020/12/21 07:40:36;;;;;;;14.88;4.25;;;6.80;94.10;;;;;;5016788;28;20026;-72
2020/12/21 07:43:04;;;;;;;9.38;3.83;;;6.80;94.10;;;;;;5017077;28;20048;-70
2020/12/21 07:45:34;;;;;;;17.42;5.20;;;6.90;94.10;;;;;;5015904;28;20064;-76
2020/12/21 07:48:00;;;;;;;14.98;4.70;;;7.00;94.10;;;;;;5033700;28;20026;-71
2020/12/21 07:50:25;;;;;;;12.57;4.47;;;7.00;94.10;;;;;;5014768;28;20021;-71
2020/12/21 07:52:55;;;;;;;10.52;4.60;;;7.10;94.10;;;;;;5033976;28;20498;-71
2020/12/21 07:55:21;;;;;;;9.27;3.70;;;7.10;94.00;;;;;;5034121;28;20025;-74
2020/12/21 07:57:46;;;;;;;11.52;3.70;;;7.20;93.90;;;;;;5015755;28;20036;-74
2020/12/21 08:00:12;;;;;;;9.95;3.58;;;7.20;93.80;;;;;;5033359;28;20532;-77
2020/12/21 08:02:38;;;;;;;12.00;3.90;;;7.30;93.80;;;;;;5016028;28;20445;-84
2020/12/21 08:05:04;;;;;;;11.98;4.00;;;7.30;93.80;;;;;;5016520;28;20125;-81
2020/12/21 08:07:29;;;;;;;13.93;3.75;;;7.30;93.80;;;;;;5033947;28;20546;-70
2020/12/21 08:09:56;;;;;;;13.57;4.70;;;7.30;93.70;;;;;;5033400;28;20505;-75
2020/12/21 08:12:22;;;;;;;7.53;4.28;;;7.40;93.80;;;;;;5033059;28;20061;-69
2020/12/21 08:14:59;;;;;;;12.27;4.07;;;7.50;94.10;;;;;;5034154;28;20433;-79
2020/12/21 08:17:30;;;;;;;12.73;4.32;;;7.60;93.70;;;;;;5033329;28;20041;-86
2020/12/21 08:20:01;;;;;;;13.23;4.57;;;7.70;93.70;;;;;;5033345;28;20021;-85
2020/12/21 08:22:30;;;;;;;12.57;4.97;;;7.80;93.70;;;;;;5016167;28;20109;-77
2020/12/21 08:25:15;;;;;;;11.23;3.85;;;7.90;93.60;;;;;;5033656;28;20021;-76
2020/12/21 08:27:49;;;;;;;8.23;3.53;;;7.90;93.50;;;;;;5032638;28;20025;-77
2020/12/21 08:30:17;;;;;;;10.57;3.72;;;8.00;93.40;;;;;;5015456;28;20056;-72
2020/12/21 08:32:44;;;;;;;14.00;3.78;;;8.10;93.30;;;;;;4995993;28;20022;-74
2020/12/21 08:35:10;;;;;;;10.27;3.63;;;8.10;93.20;;;;;;5013912;28;20030;-77
2020/12/21 08:37:36;;;;;;;13.05;3.83;;;8.20;93.20;;;;;;5016186;28;20034;-70
2020/12/21 08:40:12;;;;;;;11.80;3.55;;;8.20;93.10;;;;;;5031784;28;20359;-81
2020/12/21 08:42:38;;;;;;;12.13;4.32;;;8.30;93.10;;;;;;5012648;28;20048;-70
2020/12/21 08:45:06;;;;;;;16.15;3.92;;;8.40;93.00;;;;;;5013466;28;20025;-72
2020/12/21 08:47:31;;;;;;;8.32;3.10;;;8.40;92.90;;;;;;4996878;28;20106;-70
2020/12/21 08:49:57;;;;;;;8.70;3.13;;;8.50;92.90;;;;;;5012481;28;20154;-71
2020/12/21 08:52:22;;;;;;;13.45;4.43;;;8.60;92.90;;;;;;5015410;28;20081;-80
2020/12/21 08:54:48;;;;;;;10.35;3.30;;;8.60;92.80;;;;;;5015745;28;20049;-88
2020/12/21 08:57:13;;;;;;;12.27;3.47;;;8.60;92.70;;;;;;5012360;28;20065;-78
2020/12/21 08:59:40;;;;;;;7.90;3.03;;;8.60;92.70;;;;;;5013867;28;20018;-84
2020/12/21 09:02:06;;;;;;;11.80;3.47;;;8.70;92.70;;;;;;5012805;28;20034;-75
2020/12/21 09:04:31;;;;;;;12.23;3.60;;;8.70;92.60;;;;;;5012758;28;20096;-80
2020/12/21 09:06:57;;;;;;;9.65;3.13;;;8.80;92.60;;;;;;5013157;28;20457;-76
2020/12/21 09:09:22;;;;;;;9.20;3.08;;;8.80;92.50;;;;;;5012921;28;20130;-80
2020/12/21 09:11:53;;;;;;;12.45;3.15;;;8.90;92.50;;;;;;5011075;28;20114;-73
2020/12/21 09:14:18;;;;;;;8.85;3.35;;;8.90;92.40;;;;;;5011960;28;20386;-72
2020/12/21 09:16:44;;;;;;;7.80;2.55;;;9.00;92.40;;;;;;5012120;28;20041;-79
2020/12/21 09:19:09;;;;;;;8.77;2.50;;;9.00;92.30;;;;;;5012164;28;20026;-70
2020/12/21 09:21:35;;;;;;;9.70;2.90;;;9.00;92.20;;;;;;5011745;28;20025;-70
2020/12/21 09:24:00;;;;;;;8.13;2.33;;;9.00;92.10;;;;;;5011357;28;20049;-70
2020/12/21 09:26:28;;;;;;;12.45;2.90;;;9.10;92.10;;;;;;5013080;28;20030;-70
2020/12/21 09:28:54;;;;;;;6.93;2.40;;;9.20;92.00;;;;;;5012242;28;20053;-73
2020/12/21 09:31:21;;;;;;;7.97;2.78;;;9.30;91.90;;;;;;5012848;28;20029;-69
2020/12/21 09:33:50;;;;;;;8.80;2.83;;;9.40;91.70;;;;;;5014054;28;20363;-71
2020/12/21 09:36:17;;;;;;;9.55;2.63;;;9.40;91.70;;;;;;5011972;28;20018;-69
2020/12/21 09:38:44;;;;;;;9.90;3.20;;;9.40;91.60;;;;;;5012890;28;20030;-71
2020/12/21 09:41:15;;;;;;;8.98;2.55;;;9.50;91.60;;;;;;5012261;28;20041;-70
2020/12/21 09:43:42;;;;;;;8.23;2.40;;;9.50;91.60;;;;;;5026844;28;20516;-70
2020/12/21 09:46:08;;;;;;;8.63;2.65;;;9.60;91.50;;;;;;5025126;28;20010;-70
2020/12/21 09:48:33;;;;;;;13.55;2.60;;;9.60;91.30;;;;;;5013054;28;20481;-75
2020/12/21 09:50:59;;;;;;;9.32;3.38;;;9.60;91.30;;;;;;4994799;28;20028;-70
2020/12/21 09:53:24;;;;;;;15.07;3.55;;;9.60;91.30;;;;;;5031956;28;20014;-80
2020/12/21 09:55:50;;;;;;;6.70;2.50;;;9.70;91.30;;;;;;5031970;28;20386;-82
2020/12/21 09:58:16;;;;;;;5.80;2.40;;;9.70;91.20;;;;;;5031513;28;20036;-77
2020/12/21 10:00:41;;;;;;;7.57;2.50;;;9.80;91.10;;;;;;5014440;28;20013;-79
2020/12/21 10:03:07;;;;;;;7.85;2.78;;;9.70;91.10;;;;;;5032211;28;20023;-72
2020/12/21 10:05:32;;;;;;;7.88;3.17;;;9.80;91.00;;;;;;5031813;28;20537;-71
2020/12/21 10:07:58;;;;;;;7.85;2.60;;;9.80;90.90;;;;;;5033548;28;20033;-81
2020/12/21 10:10:23;;;;;;;6.28;2.70;;;9.90;90.90;;;;;;5032660;28;20026;-87
2020/12/21 10:12:50;;;;;;;8.38;2.50;;;9.90;90.80;;;;;;5035163;28;20021;-92
2020/12/21 10:15:16;;;;;;;8.80;3.20;;;9.90;90.70;;;;;;5037216;28;20485;-70
2020/12/21 10:17:41;;;;;;;9.27;2.42;;;10.00;90.70;;;;;;5036711;28;20034;-94
2020/12/21 10:20:07;;;;;;;11.25;2.95;;;9.90;90.70;;;;;;5037061;28;20536;-78
2020/12/21 10:22:32;;;;;;;9.80;2.80;;;10.00;90.80;;;;;;5035930;28;20116;-72
2020/12/21 10:24:58;;;;;;;10.57;2.80;;;9.90;90.80;;;;;;5017854;28;20029;-69
2020/12/21 10:27:24;;;;;;;8.40;2.55;;;10.00;90.80;;;;;;5016836;28;20025;-69
2020/12/21 10:29:50;;;;;;;8.95;3.00;;;10.00;90.80;;;;;;5035445;28;20121;-72
2020/12/21 10:32:16;;;;;;;10.85;2.85;;;10.00;90.70;;;;;;5034722;28;20033;-69
2020/12/21 10:34:41;;;;;;;6.10;2.65;;;10.00;90.70;;;;;;5035130;28;20041;-75
2020/12/21 10:37:07;;;;;;;7.03;2.65;;;10.00;90.70;;;;;;5035243;28;20034;-70
2020/12/21 10:39:32;;;;;;;12.82;3.38;;;10.10;90.70;;;;;;5035348;28;20030;-78
2020/12/21 10:41:58;;;;;;;9.35;2.80;;;10.10;90.70;;;;;;5035195;28;20143;-78
2020/12/21 10:44:23;;;;;;;5.63;2.65;;;10.10;90.60;;;;;;5017228;28;20033;-83
2020/12/21 10:46:49;;;;;;;10.80;3.03;;;10.10;90.60;;;;;;5033028;28;20416;-74
2020/12/21 10:49:15;;;;;;;8.23;3.05;;;10.10;90.70;;;;;;5012753;28;20029;-83
2020/12/21 10:51:40;;;;;;;8.80;3.30;;;10.10;90.70;;;;;;5031334;28;20038;-79
2020/12/21 10:54:06;;;;;;;7.18;2.70;;;10.10;90.90;;;;;;5005617;28;20029;-78
2020/12/21 10:56:31;;;;;;;6.75;2.70;;;10.00;91.00;;;;;;5017433;28;20040;-80
2020/12/21 10:58:57;;;;;;;9.68;3.20;;;10.10;91.00;;;;;;5016810;28;20418;-80
2020/12/21 11:01:23;;;;;;;5.95;2.47;;;10.10;91.10;;;;;;4997359;28;20449;-73
2020/12/21 11:03:49;;;;;;;9.65;2.78;;;10.10;91.10;;;;;;5008274;28;20033;-79
2020/12/21 11:06:19;;;;;;;12.27;3.22;;;10.10;91.10;;;;;;5034722;28;20048;-76
2020/12/21 11:08:45;;;;;;;13.68;4.32;;;10.10;91.20;;;;;;5016700;28;20032;-79
2020/12/21 11:11:11;;;;;;;12.30;3.70;;;10.10;91.30;;;;;;5017400;28;20010;-76
2020/12/21 11:13:39;;;;;;;9.52;3.83;;;10.10;91.40;;;;;;5035355;28;20052;-74
2020/12/21 11:16:04;;;;;;;11.32;3.38;;;10.00;91.40;;;;;;5034269;28;20021;-76
2020/12/21 11:18:30;;;;;;;8.57;3.10;;;10.00;91.60;;;;;;5034672;28;20041;-78
2020/12/21 11:20:58;;;;;;;9.68;3.40;;;10.00;91.60;;;;;;5034180;28;20029;-77
2020/12/21 11:23:24;;;;;;;12.38;3.75;;;10.00;91.70;;;;;;5034058;28;20486;-79
2020/12/21 11:25:49;;;;;;;11.70;3.45;;;10.00;91.80;;;;;;5015512;28;20021;-79
2020/12/21 11:28:15;;;;;;;9.30;3.25;;;10.10;91.90;;;;;;5006982;28;20038;-77
2020/12/21 11:30:40;;;;;;;6.25;2.67;;;10.10;91.90;;;;;;5016649;28;20028;-73
2020/12/21 11:33:06;;;;;;;10.32;3.20;;;10.10;91.90;;;;;;5034306;28;20026;-78
2020/12/21 11:35:31;;;;;;;8.73;3.45;;;10.10;92.00;;;;;;5016712;28;20069;-79
2020/12/21 11:37:57;;;;;;;11.20;3.78;;;10.10;92.00;;;;;;5016497;28;20029;-73
2020/12/21 11:40:22;;;;;;;10.93;4.07;;;10.00;92.10;;;;;;5016590;28;20025;-73
2020/12/21 11:42:48;;;;;;;9.70;3.83;;;10.00;92.10;;;;;;5033863;28;20801;-77
2020/12/21 11:45:14;;;;;;;9.02;3.03;;;10.00;92.20;;;;;;5002920;28;20029;-75
2020/12/21 11:47:40;;;;;;;5.75;3.10;;;10.00;92.30;;;;;;5034260;28;20079;-76
2020/12/21 11:50:06;;;;;;;7.78;3.25;;;10.00;92.30;;;;;;5033427;28;20421;-73
2020/12/21 11:52:31;;;;;;;10.38;3.40;;;10.00;92.40;;;;;;5034231;28;20061;-75
2020/12/21 11:54:58;;;;;;;10.20;3.42;;;10.00;92.40;;;;;;5034164;28;20478;-73
2020/12/21 11:57:25;;;;;;;10.43;3.55;;;10.00;92.40;;;;;;5015821;28;20037;-76
2020/12/21 11:59:52;;;;;;;9.80;4.05;;;10.00;92.50;;;;;;5015885;28;20025;-77
2020/12/21 12:02:18;;;;;;;10.90;3.55;;;10.00;92.50;;;;;;5016583;28;20379;-77
2020/12/21 12:04:43;;;;;;;10.25;4.07;;;10.00;92.50;;;;;;5015286;28;20135;-73
2020/12/21 12:07:09;;;;;;;12.10;3.65;;;10.00;92.50;;;;;;5033100;28;20033;-77
2020/12/21 12:09:34;;;;;;;10.45;3.63;;;10.00;92.50;;;;;;5016246;28;20032;-70
2020/12/21 12:12:01;;;;;;;7.40;3.30;;;10.00;92.60;;;;;;5033079;28;20469;-73
2020/12/21 12:14:27;;;;;;;7.68;3.33;;;10.00;92.60;;;;;;5010791;28;20079;-73
2020/12/21 12:16:55;;;;;;;7.22;3.17;;;10.00;92.70;;;;;;5014909;28;20029;-73
2020/12/21 12:19:22;;;;;;;9.65;3.42;;;10.00;92.70;;;;;;5014365;28;20025;-71
2020/12/21 12:21:49;;;;;;;10.07;3.25;;;10.00;92.70;;;;;;5015357;28;20159;-69
2020/12/21 12:24:14;;;;;;;11.60;3.72;;;10.00;92.80;;;;;;5033138;28;20523;-69
2020/12/21 12:26:40;;;;;;;8.65;3.53;;;10.00;92.80;;;;;;5015292;28;20112;-70
2020/12/21 12:29:05;;;;;;;7.93;3.20;;;10.00;92.90;;;;;;5014523;28;20022;-69
2020/12/21 12:31:31;;;;;;;13.60;3.17;;;10.00;92.90;;;;;;5013964;28;20027;-75
2020/12/21 12:33:59;;;;;;;6.70;3.40;;;10.00;92.90;;;;;;5012766;28;20434;-79
2020/12/21 12:36:26;;;;;;;7.70;3.17;;;10.00;92.90;;;;;;4999435;28;20026;-72
2020/12/21 12:38:55;;;;;;;8.75;3.13;;;10.00;93.00;;;;;;5032453;28;20029;-77
2020/12/21 12:41:21;;;;;;;8.68;4.10;;;10.00;93.00;;;;;;5032643;28;20017;-72
2020/12/21 12:43:47;;;;;;;9.27;3.53;;;10.00;93.10;;;;;;5014832;28;20100;-72
2020/12/21 12:46:12;;;;;;;8.18;3.45;;;9.90;93.10;;;;;;5031641;28;20118;-73